Data for 11/15/2005

Time Sea-Level Adjusted Pressure Absolute Pressure Temperature Relative Humidity Dew Point   
(mb) (inHg) (mb) (inHg) (C) (F) (%) (C) (F)
00:05 1031 30.45 860 25.4 -6.8 19.8 70 -11.3 11.7
00:10 1031 30.45 860 25.4 -6.9 19.7 71 -11.3 11.6
00:15 1031 30.45 860 25.4 -6.8 19.7 70 -11.5 11.3
00:20 1031 30.45 860 25.4 -6.9 19.5 71 -11.4 11.5
00:25 1031 30.45 860 25.4 -6.9 19.6 70 -11.4 11.4
00:30 1031 30.45 860 25.4 -6.9 19.5 70 -11.5 11.3
00:35 1031 30.45 860 25.4 -7.1 19.3 70 -11.6 11.1
00:40 1031 30.45 860 25.4 -7.1 19.3 71 -11.5 11.4
00:45 1031 30.45 860 25.4 -7 19.3 72 -11.2 11.8
00:50 1031 30.45 860 25.4 -7.2 19.1 74 -11.1 12
00:55 1031 30.45 860 25.4 -7.4 18.8 75 -11.1 12.1
01:00 1031 30.45 860 25.4 -7.5 18.5 77 -10.9 12.4
01:05 1031 30.45 860 25.4 -7.7 18.2 78 -10.8 12.6
01:10 1030 30.42 860 25.4 -7.7 18.1 78 -11 12.3
01:15 1030 30.42 860 25.4 -7.9 17.8 76 -11.3 11.6
01:20 1030 30.42 860 25.4 -8 17.7 75 -11.6 11
01:25 1030 30.42 860 25.4 -8 17.7 75 -11.7 11
01:30 1030 30.42 859 25.37 -8.1 17.4 77 -11.5 11.2
01:35 1030 30.42 859 25.37 -8.2 17.3 76 -11.7 11
01:40 1030 30.42 859 25.37 -8.3 17 78 -11.6 11.2
01:45 1030 30.42 859 25.37 -8.6 16.5 79 -11.7 11
01:50 1030 30.42 859 25.37 -8.8 16.3 78 -11.9 10.6
01:55 1030 30.42 859 25.37 -8.7 16.3 78 -11.8 10.7
02:00 1030 30.42 859 25.37 -8.8 16.2 78 -11.9 10.5
02:05 1030 30.42 859 25.37 -9 15.7 79 -12 10.4
02:10 1030 30.42 859 25.37 -9 15.8 79 -12 10.4
02:15 1030 30.42 859 25.37 -9 15.8 78 -12.2 10
02:20 1030 30.42 859 25.37 -9 15.8 79 -12 10.3
02:25 1030 30.42 860 25.4 -8.8 16.1 77 -12.2 10.1
02:30 1030 30.42 860 25.4 -8.8 16.1 77 -12.1 10.1
02:35 1030 30.42 859 25.37 -8.7 16.4 76 -12.2 10.1
02:40 1030 30.42 859 25.37 -8.6 16.6 74 -12.4 9.7
02:45 1030 30.42 859 25.37 -8.7 16.4 73 -12.7 9.2
02:50 1030 30.42 859 25.37 -8.9 16.1 74 -12.7 9.1
02:55 1030 30.42 859 25.37 -9 15.8 75 -12.7 9.2
03:00 1030 30.42 859 25.37 -9.2 15.4 75 -12.9 8.9
03:05 1030 30.42 859 25.37 -9.4 15 79 -12.5 9.5
03:10 1030 30.42 859 25.37 -9.5 14.9 80 -12.4 9.7
03:15 1030 30.42 859 25.37 -9.5 15 78 -12.7 9.2
03:20 1030 30.42 859 25.37 -9.6 14.7 78 -12.8 8.9
03:25 1030 30.42 859 25.37 -9.8 14.3 78 -13 8.7
03:30 1030 30.42 859 25.37 -9.8 14.3 78 -13.1 8.5
03:35 1030 30.42 859 25.37 -9.9 14.3 77 -13.1 8.4
03:40 1030 30.42 859 25.37 -9.7 14.5 78 -12.9 8.7
03:45 1030 30.42 859 25.37 -9.7 14.5 77 -13.1 8.4
03:50 1030 30.42 859 25.37 -10 14.1 77 -13.2 8.2
03:55 1030 30.42 859 25.37 -10.2 13.7 78 -13.4 7.9
04:00 1030 30.42 859 25.37 -10.4 13.3 78 -13.6 7.5
04:05 1030 30.42 859 25.37 -10.5 13.1 78 -13.7 7.4
04:10 1030 30.42 860 25.4 -10.7 12.8 77 -13.9 7
04:15 1030 30.42 859 25.37 -10.7 12.7 78 -13.9 7
04:20 1030 30.42 859 25.37 -10.8 12.5 79 -13.8 7.1
04:25 1030 30.42 859 25.37 -10.9 12.4 79 -13.9 7
04:30 1030 30.42 859 25.37 -11.2 11.9 80 -13.9 6.9
04:35 1030 30.42 859 25.37 -11.3 11.6 80 -14.1 6.7
04:40 1030 30.42 859 25.37 -11.2 11.9 80 -13.9 7
04:45 1030 30.42 859 25.37 -10.9 12.4 79 -13.9 7
04:50 1030 30.42 859 25.37 -10.7 12.7 79 -13.7 7.3
04:55 1030 30.42 859 25.37 -10.7 12.8 80 -13.5 7.7
05:00 1030 30.42 859 25.37 -10.6 13 79 -13.6 7.6
05:05 1030 30.42 859 25.37 -10.5 13.2 78 -13.6 7.5
05:10 1030 30.42 859 25.37 -10.3 13.4 78 -13.5 7.7
05:15 1030 30.42 859 25.37 -10.3 13.5 78 -13.4 7.8
05:20 1030 30.42 859 25.37 -10.3 13.5 77 -13.6 7.6
05:25 1030 30.42 859 25.37 -10.2 13.6 78 -13.4 7.9
05:30 1030 30.42 859 25.37 -10.2 13.6 78 -13.4 7.9
05:35 1030 30.42 859 25.37 -10.1 13.8 77 -13.4 7.8
05:40 1030 30.42 860 25.4 -10.2 13.7 77 -13.4 7.8
05:45 1030 30.42 860 25.4 -10.2 13.7 77 -13.5 7.8
05:50 1030 30.42 859 25.37 -10.1 13.9 75 -13.7 7.3
05:55 1030 30.42 859 25.37 -9.7 14.5 75 -13.3 8
06:00 1030 30.42 859 25.37 -9.5 15 74 -13.3 8.1
06:05 1030 30.42 859 25.37 -9.4 15.1 74 -13.2 8.2
06:10 1030 30.42 859 25.37 -9.4 15.1 75 -13.1 8.4
06:15 1030 30.42 859 25.37 -9.5 14.9 76 -13 8.6
06:20 1030 30.42 859 25.37 -9.6 14.7 76 -13 8.6
06:25 1030 30.42 859 25.37 -9.5 14.9 75 -13.1 8.4
06:30 1030 30.42 859 25.37 -9.4 15.1 75 -13.1 8.4
06:35 1030 30.42 859 25.37 -9.3 15.4 74 -13.1 8.5
06:40 1030 30.42 859 25.37 -9.2 15.4 74 -13 8.6
06:45 1030 30.42 859 25.37 -9.2 15.5 74 -13 8.7
06:50 1030 30.42 859 25.37 -9.3 15.2 74 -13.2 8.3
06:55 1030 30.42 859 25.37 -9.3 15.3 74 -13 8.5
07:00 1030 30.42 859 25.37 -9.3 15.3 75 -13 8.6
07:05 1030 30.42 859 25.37 -9.2 15.4 74 -13.1 8.4
07:10 1030 30.42 859 25.37 -9.1 15.5 73 -13.1 8.4
07:15 1030 30.42 859 25.37 -9.1 15.6 73 -13.2 8.3
07:20 1030 30.42 859 25.37 -9.1 15.7 70 -13.5 7.7
07:25 1030 30.42 859 25.37 -9.1 15.5 70 -13.7 7.4
07:30 1030 30.42 859 25.37 -9.2 15.5 73 -13.2 8.2
07:35 1030 30.42 859 25.37 -9.5 14.9 76 -12.9 8.7
07:40 1030 30.42 859 25.37 -9.6 14.7 77 -12.9 8.8
07:45 1030 30.42 859 25.37 -9.9 14.2 79 -12.9 8.8
07:50 1030 30.42 859 25.37 -9.9 14.2 78 -13 8.6
07:55 1030 30.42 859 25.37 -9.3 15.2 74 -13.2 8.3
08:00 1030 30.42 859 25.37 -9.3 15.3 74 -13.2 8.3
08:05 1030 30.42 859 25.37 -9.1 15.5 73 -13.1 8.4
08:10 1030 30.42 859 25.37 -8.9 15.9 72 -13.1 8.4
08:15 1030 30.42 859 25.37 -9.1 15.7 73 -13.1 8.4
08:20 1030 30.42 859 25.37 -9 15.9 72 -13.1 8.5
08:25 1030 30.42 859 25.37 -9 15.8 73 -13.1 8.5
08:30 1030 30.42 859 25.37 -9.4 15.2 73 -13.3 8
08:35 1030 30.42 859 25.37 -9.3 15.2 73 -13.3 8
08:40 1030 30.42 859 25.37 -9.1 15.6 73 -13.2 8.3
08:45 1030 30.42 859 25.37 -8.8 16.1 72 -13 8.6
08:50 1030 30.42 859 25.37 -8.2 17.2 70 -12.8 9
08:55 1030 30.42 859 25.37 -7.5 18.6 67 -12.6 9.3
09:00 1030 30.42 859 25.37 -6.7 20 63 -12.6 9.4
09:05 1030 30.42 859 25.37 -6.3 20.7 61 -12.5 9.5
09:10 1030 30.42 859 25.37 -5.6 21.8 58 -12.6 9.4
09:15 1030 30.42 859 25.37 -5.1 22.7 57 -12.3 9.8
09:20 1030 30.42 859 25.37 -5.1 22.7 58 -12.2 10.1
09:25 1030 30.42 859 25.37 -4.9 23.2 56 -12.4 9.8
09:30 1030 30.42 859 25.37 -4.7 23.5 56 -12.1 10.2
09:35 1030 30.42 859 25.37 -5.1 22.8 56 -12.5 9.4
09:40 1030 30.42 859 25.37 -4.6 23.7 55 -12.4 9.7
09:45 1030 30.42 859 25.37 -4.5 23.8 53 -12.7 9.2
09:50 1030 30.42 859 25.37 -4.4 24.1 54 -12.4 9.7
09:55 1030 30.42 859 25.37 -3.9 24.9 52 -12.5 9.5
10:00 1030 30.42 859 25.37 -3.5 25.8 50 -12.4 9.7
10:05 1030 30.42 859 25.37 -3.4 25.9 52 -12 10.5
10:10 1030 30.42 859 25.37 -3.3 26 51 -12.2 10.1
10:15 1030 30.42 859 25.37 -2.9 26.9 51 -11.7 11
10:20 1030 30.42 859 25.37 -2.7 27.2 49 -12.1 10.2
10:25 1030 30.42 859 25.37 -2.9 26.8 51 -11.7 10.9
10:30 1030 30.42 859 25.37 -2.8 26.9 50 -11.9 10.6
10:35 1030 30.42 859 25.37 -2.8 27 51 -11.5 11.2
10:40 1030 30.42 859 25.37 -2.9 26.8 52 -11.5 11.3
10:45 1030 30.42 859 25.37 -3 26.7 51 -11.7 10.9
10:50 1030 30.42 859 25.37 -2.9 26.8 52 -11.5 11.3
10:55 1030 30.42 859 25.37 -2.8 27 50 -11.9 10.5
11:00 1030 30.42 859 25.37 -3.1 26.4 50 -12 10.3
11:05 1030 30.42 859 25.37 -3.5 25.6 53 -11.9 10.6
11:10 1029 30.39 859 25.37 -3.5 25.7 51 -12.2 10
11:15 1029 30.39 858 25.34 -3.1 26.5 53 -11.4 11.4
11:20 1029 30.39 858 25.34 -2.6 27.3 49 -11.9 10.6
11:25 1029 30.39 858 25.34 -2.9 26.8 50 -12 10.4
11:30 1029 30.39 858 25.34 -3.4 25.9 53 -11.7 10.9
11:35 1029 30.39 858 25.34 -3 26.5 51 -11.9 10.6
11:40 1029 30.39 858 25.34 -2.2 28 49 -11.6 11.1
11:45 1029 30.39 858 25.34 -2 28.4 48 -11.5 11.3
11:50 1029 30.39 858 25.34 -1.8 28.8 48 -11.4 11.5
11:55 1029 30.39 858 25.34 -1.9 28.6 48 -11.4 11.4
12:00 1029 30.39 858 25.34 -1.3 29.6 47 -11.3 11.7
12:05 1029 30.39 858 25.34 -0.8 30.5 44 -11.7 11
12:10 1029 30.39 858 25.34 -0.7 30.7 47 -10.8 12.5
12:15 1029 30.39 858 25.34 -1.5 29.3 50 -10.7 12.8
12:20 1029 30.39 858 25.34 -1.7 29 49 -11.1 12
12:25 1029 30.39 858 25.34 -2.2 28.1 52 -10.9 12.5
12:30 1029 30.39 858 25.34 -1.4 29.4 47 -11.3 11.7
12:35 1029 30.39 858 25.34 -1 30.3 50 -10.2 13.6
12:40 1029 30.39 858 25.34 -0.6 31 44 -11.5 11.2
12:45 1029 30.39 858 25.34 -0.4 31.3 45 -10.9 12.4
12:50 1029 30.39 858 25.34 -0.4 31.3 45 -10.9 12.4
12:55 1028 30.36 858 25.34 -0.2 31.6 45 -10.9 12.4
13:00 1028 30.36 858 25.34 -0.2 31.7 43 -11.3 11.7
13:05 1028 30.36 858 25.34 -0.2 31.7 44 -11 12.3
13:10 1028 30.36 858 25.34 0.1 32.1 43 -11.1 12.1
13:15 1028 30.36 857 25.31 0.1 32.2 42 -11.4 11.6
13:20 1028 30.36 857 25.31 0 32 43 -11.2 11.8
13:25 1028 30.36 857 25.31 0.3 32.6 42 -11.2 11.9
13:30 1028 30.36 857 25.31 -0 31.9 43 -11.2 11.8
13:35 1028 30.36 857 25.31 -0.6 31 44 -11.3 11.6
13:40 1028 30.36 857 25.31 -0.6 30.9 45 -11.2 11.8
13:45 1028 30.36 857 25.31 -0.7 30.7 46 -11 12.2
13:50 1028 30.36 857 25.31 -0.7 30.8 46 -10.8 12.5
13:55 1028 30.36 857 25.31 -0.8 30.5 47 -10.8 12.6
14:00 1028 30.36 857 25.31 -0.9 30.3 46 -11 12.1
14:05 1028 30.36 857 25.31 -1.8 28.8 47 -11.5 11.2
14:10 1028 30.36 857 25.31 -1.3 29.6 45 -11.8 10.8
14:15 1028 30.36 857 25.31 -0.6 30.9 44 -11.5 11.3
14:20 1028 30.36 857 25.31 -0.5 31 44 -11.2 11.8
14:25 1028 30.36 857 25.31 -0.2 31.6 45 -10.9 12.5
14:30 1028 30.36 857 25.31 -0.4 31.3 45 -10.8 12.5
14:35 1027 30.33 857 25.31 -0.7 30.8 46 -11 12.2
14:40 1027 30.33 857 25.31 -0.7 30.8 48 -10.4 13.3
14:45 1027 30.33 857 25.31 -0.7 30.7 46 -10.9 12.4
14:50 1027 30.33 857 25.31 -0.8 30.6 45 -11.3 11.7
14:55 1027 30.33 857 25.31 -1.2 29.8 51 -10.2 13.7
15:00 1027 30.33 857 25.31 -1.4 29.5 54 -9.5 14.9
15:05 1027 30.33 857 25.31 -1.9 28.6 54 -10 14
15:10 1027 30.33 857 25.31 -2.3 27.9 56 -9.9 14.2
15:15 1027 30.33 857 25.31 -2.5 27.5 57 -9.9 14.2
15:20 1027 30.33 857 25.31 -2.7 27.1 58 -9.9 14.2
15:25 1027 30.33 856 25.28 -2.8 27 57 -10.2 13.7
15:30 1027 30.33 856 25.28 -2.6 27.3 57 -10.1 13.9
15:35 1027 30.33 856 25.28 -2.9 26.8 57 -10.2 13.6
15:40 1027 30.33 856 25.28 -2.7 27.1 57 -10.1 13.8
15:45 1027 30.33 856 25.28 -2.6 27.3 56 -10.3 13.5
15:50 1027 30.33 856 25.28 -2.7 27.1 55 -10.7 12.8
15:55 1027 30.33 856 25.28 -2.6 27.4 54 -10.7 12.7
16:00 1027 30.33 856 25.28 -2.4 27.7 56 -10.1 13.7
16:05 1027 30.33 856 25.28 -2.3 27.9 55 -10.2 13.6
16:10 1027 30.33 856 25.28 -2.1 28.2 55 -10 13.9
16:15 1027 30.33 856 25.28 -2 28.4 54 -10 14
16:20 1027 30.33 856 25.28 -2 28.4 54 -10 14
16:25 1027 30.33 856 25.28 -2.1 28.2 56 -9.7 14.5
16:30 1027 30.33 856 25.28 -2.2 28.1 57 -9.6 14.7
16:35 1027 30.33 856 25.28 -2.2 28 57 -9.7 14.6
16:40 1027 30.33 856 25.28 -2.3 27.8 57 -9.7 14.6
16:45 1027 30.33 856 25.28 -2.5 27.4 57 -9.9 14.2
16:50 1027 30.33 856 25.28 -2.6 27.4 57 -9.9 14.1
16:55 1027 30.33 856 25.28 -2.8 27 58 -9.8 14.3
17:00 1027 30.33 856 25.28 -3.1 26.4 60 -9.8 14.4
17:05 1027 30.33 856 25.28 -3.3 26 64 -9.2 15.4
17:10 1027 30.33 856 25.28 -3.5 25.6 63 -9.5 14.9
17:15 1027 30.33 856 25.28 -3.6 25.5 64 -9.4 15
17:20 1027 30.33 856 25.28 -3.2 26.2 62 -9.6 14.8
17:25 1027 30.33 856 25.28 -3.4 25.9 63 -9.4 15.1
17:30 1027 30.33 856 25.28 -3.5 25.6 62 -9.7 14.5
17:35 1027 30.33 856 25.28 -3.3 26 62 -9.6 14.7
17:40 1027 30.33 856 25.28 -3.2 26.3 62 -9.5 14.9
17:45 1027 30.33 856 25.28 -3 26.5 61 -9.4 15
17:50 1027 30.33 856 25.28 -2.8 26.9 58 -9.9 14.2
17:55 1027 30.33 856 25.28 -2.6 27.4 57 -10 14.1
18:00 1027 30.33 856 25.28 -2.5 27.5 56 -10 13.9
18:05 1027 30.33 856 25.28 -2.6 27.2 58 -9.7 14.5
18:10 1027 30.33 856 25.28 -2.7 27.1 58 -9.8 14.3
18:15 1027 30.33 856 25.28 -2.5 27.4 57 -9.8 14.3
18:20 1027 30.33 856 25.28 -2.5 27.4 58 -9.7 14.5
18:25 1027 30.33 856 25.28 -2.6 27.4 56 -10.2 13.6
18:30 1027 30.33 856 25.28 -2.6 27.4 55 -10.3 13.4
18:35 1027 30.33 856 25.28 -2.4 27.6 57 -9.9 14.2
18:40 1027 30.33 856 25.28 -2.5 27.5 57 -9.9 14.3
18:45 1027 30.33 856 25.28 -2.4 27.7 55 -10.2 13.7
18:50 1027 30.33 857 25.31 -2.2 28 54 -10.2 13.6
18:55 1027 30.33 857 25.31 -2.1 28.3 54 -10.2 13.7
19:00 1027 30.33 857 25.31 -2 28.5 53 -10.3 13.5
19:05 1027 30.33 856 25.28 -1.9 28.6 53 -10.3 13.5
19:10 1027 30.33 856 25.28 -1.8 28.8 52 -10.4 13.2
19:15 1027 30.33 856 25.28 -1.9 28.5 54 -10.1 13.8
19:20 1027 30.33 856 25.28 -1.9 28.6 55 -9.9 14.2
19:25 1027 30.33 856 25.28 -2.1 28.2 56 -9.8 14.3
19:30 1027 30.33 856 25.28 -2.1 28.2 55 -9.9 14.1
19:35 1027 30.33 856 25.28 -2 28.4 54 -10.2 13.6
19:40 1027 30.33 856 25.28 -1.9 28.5 54 -10 13.9
19:45 1027 30.33 856 25.28 -2.3 27.9 57 -9.6 14.7
19:50 1027 30.33 856 25.28 -2.7 27.1 62 -9.1 15.7
19:55 1027 30.33 856 25.28 -2.6 27.3 58 -9.7 14.6
20:00 1027 30.33 856 25.28 -2.3 27.9 57 -9.7 14.5
20:05 1027 30.33 856 25.28 -2 28.3 55 -9.8 14.4
20:10 1027 30.33 856 25.28 -1.9 28.6 55 -9.8 14.4
20:15 1027 30.33 856 25.28 -1.8 28.7 54 -10 14
20:20 1027 30.33 856 25.28 -1.7 29 54 -9.8 14.4
20:25 1027 30.33 857 25.31 -1.7 29 53 -10 14
20:30 1027 30.33 856 25.28 -1.6 29.1 51 -10.3 13.4
20:35 1027 30.33 856 25.28 -1.5 29.4 50 -10.5 13
20:40 1027 30.33 856 25.28 -1.3 29.6 50 -10.5 13.2
20:45 1027 30.33 856 25.28 -1.3 29.6 49 -10.6 12.9
20:50 1027 30.33 857 25.31 -1.8 28.7 55 -9.7 14.6
20:55 1027 30.33 857 25.31 -2.1 28.3 53 -10.5 13.1
21:00 1027 30.33 856 25.28 -1.7 29 50 -10.9 12.4
21:05 1027 30.33 857 25.31 -1.4 29.5 50 -10.6 13
21:10 1027 30.33 857 25.31 -1.3 29.7 50 -10.4 13.3
21:15 1027 30.33 857 25.31 -1.2 29.9 50 -10.3 13.4
21:20 1027 30.33 857 25.31 -1.3 29.7 51 -10.2 13.7
21:25 1027 30.33 857 25.31 -1.2 29.8 51 -10.1 13.8
21:30 1027 30.33 857 25.31 -1.1 29.9 50 -10.3 13.5
21:35 1027 30.33 857 25.31 -1.1 30.1 50 -10.3 13.4
21:40 1027 30.33 857 25.31 -1.1 30.1 49 -10.4 13.3
21:45 1027 30.33 857 25.31 -1.1 30 51 -10 13.9
21:50 1027 30.33 857 25.31 -1.1 29.9 54 -9.3 15.2
21:55 1027 30.33 857 25.31 -1.2 29.8 57 -8.6 16.6
22:00 1027 30.33 857 25.31 -1.2 29.8 57 -8.6 16.4
22:05 1027 30.33 857 25.31 -1.2 29.8 59 -8.2 17.2
22:10 1027 30.33 856 25.28 -1.3 29.7 61 -7.8 18
22:15 1027 30.33 856 25.28 -1.3 29.6 62 -7.7 18.2
22:20 1027 30.33 856 25.28 -1.4 29.4 63 -7.7 18.2
22:25 1027 30.33 856 25.28 -1.4 29.5 61 -8 17.7
22:30 1027 30.33 856 25.28 -1.4 29.5 61 -7.9 17.8
22:35 1027 30.33 856 25.28 -1.4 29.5 61 -7.9 17.9
22:40 1027 30.33 856 25.28 -1.3 29.6 61 -8 17.7
22:45 1027 30.33 856 25.28 -1.3 29.7 61 -7.9 17.8
22:50 1027 30.33 856 25.28 -1.3 29.6 61 -7.8 17.9
22:55 1027 30.33 856 25.28 -1.6 29.1 67 -7 19.4
23:00 1027 30.33 856 25.28 -2 28.3 73 -6.3 20.7
23:05 1027 30.33 856 25.28 -2.3 27.8 77 -5.8 21.6
23:10 1027 30.33 856 25.28 -2.4 27.6 79 -5.6 21.8
23:15 1027 30.33 856 25.28 -2.6 27.4 80 -5.5 22
23:20 1027 30.33 856 25.28 -2.6 27.3 81 -5.5 22.2
23:25 1027 30.33 856 25.28 -2.6 27.3 81 -5.5 22.1
23:30 1027 30.33 856 25.28 -2.7 27.1 82 -5.3 22.5
23:35 1027 30.33 856 25.28 -2.6 27.3 80 -5.6 21.9
23:40 1027 30.33 856 25.28 -2.4 27.6 80 -5.4 22.3
23:45 1027 30.33 856 25.28 -2.4 27.6 81 -5.3 22.5
23:50 1027 30.33 856 25.28 -2.3 27.9 81 -5.1 22.9
23:55 1027 30.33 856 25.28 -2.4 27.7 84 -4.8 23.4
24:00 1027 30.33 856 25.28 -2.4 27.7 84 -4.8 23.4